createdAt,value
2022-08-28T00:00:41.688Z,95309.44
2022-08-28T00:03:10.910Z,95320.16
2022-08-28T00:05:39.980Z,95316.16
2022-08-28T00:08:08.750Z,95313.41
2022-08-28T00:10:39.219Z,95320.25
2022-08-28T00:13:08.040Z,95315.34
2022-08-28T00:15:39.025Z,95313.31
2022-08-28T00:18:07.572Z,95315.06
2022-08-28T00:20:36.696Z,95311.91
2022-08-28T00:23:05.872Z,95321.72
2022-08-28T00:25:34.939Z,95320.00
2022-08-28T00:28:08.493Z,95314.91
2022-08-28T00:30:41.829Z,95313.72
2022-08-28T00:33:12.786Z,95314.34
2022-08-28T00:35:41.608Z,95314.34
2022-08-28T00:38:10.267Z,95309.97
2022-08-28T00:40:38.666Z,95315.31
2022-08-28T00:43:09.411Z,95315.31
2022-08-28T00:45:40.253Z,95307.94
2022-08-28T00:48:08.516Z,95307.84
2022-08-28T00:50:51.072Z,95311.69
2022-08-28T00:53:19.670Z,95304.84
2022-08-28T00:55:47.728Z,95314.41
2022-08-28T00:58:16.127Z,95310.25
2022-08-28T01:00:45.241Z,95305.16
2022-08-28T01:03:13.060Z,95312.81
2022-08-28T01:05:43.537Z,95310.25
2022-08-28T01:08:11.361Z,95311.34
2022-08-28T01:10:41.604Z,95309.22
2022-08-28T01:13:09.437Z,95307.13
2022-08-28T01:15:38.317Z,95308.03
2022-08-28T01:18:10.203Z,95308.81
2022-08-28T01:20:44.859Z,95302.69
2022-08-28T01:23:21.823Z,95306.91
2022-08-28T01:25:52.482Z,95307.25
2022-08-28T01:28:20.330Z,95301.34
2022-08-28T01:30:49.849Z,95299.53
2022-08-28T01:33:19.361Z,95294.53
2022-08-28T01:35:55.559Z,95285.38
2022-08-28T01:38:27.030Z,95290.44
2022-08-28T01:40:59.470Z,95290.88
2022-08-28T01:43:28.818Z,95290.88
2022-08-28T01:46:02.204Z,95292.34
2022-08-28T01:48:32.014Z,95302.25
2022-08-28T01:51:00.182Z,95296.06
2022-08-28T01:53:32.678Z,95294.06
2022-08-28T01:56:04.503Z,95295.06
2022-08-28T01:58:37.899Z,95296.63
2022-08-28T02:01:10.619Z,95293.91
2022-08-28T02:03:38.411Z,95290.34
2022-08-28T02:06:07.122Z,95296.53
2022-08-28T02:08:34.923Z,95286.63
2022-08-28T02:11:06.200Z,95290.72
2022-08-28T02:13:35.034Z,95289.09
2022-08-28T02:16:03.866Z,95290.81
2022-08-28T02:18:31.623Z,95289.69
2022-08-28T02:20:59.394Z,95290.81
2022-08-28T02:23:27.266Z,95294.69
2022-08-28T02:25:54.982Z,95289.44
2022-08-28T02:28:24.043Z,95289.59
2022-08-28T02:30:51.797Z,95294.63
2022-08-28T02:33:19.683Z,95292.88
2022-08-28T02:35:47.335Z,95291.31
2022-08-28T02:38:15.295Z,95290.59
2022-08-28T02:40:43.088Z,95290.81
2022-08-28T02:43:10.912Z,95291.06
2022-08-28T02:45:39.988Z,95292.78
2022-08-28T02:48:14.652Z,95293.78
2022-08-28T02:50:45.198Z,95293.50
2022-08-28T02:53:13.322Z,95293.53
2022-08-28T02:55:41.345Z,95297.34
2022-08-28T02:58:09.632Z,95292.19
2022-08-28T03:00:37.657Z,95294.41
2022-08-28T03:03:06.807Z,95293.06
2022-08-28T03:05:34.561Z,95295.31
2022-08-28T03:08:02.259Z,95293.50
2022-08-28T03:10:29.936Z,95300.69
2022-08-28T03:12:57.632Z,95296.69
2022-08-28T03:15:25.418Z,95288.41
2022-08-28T03:17:53.093Z,95294.22
2022-08-28T03:20:22.177Z,95294.88
2022-08-28T03:23:07.512Z,95290.06
2022-08-28T03:25:35.576Z,95286.34
2022-08-28T03:28:03.533Z,95297.44
2022-08-28T03:30:31.272Z,95293.00
2022-08-28T03:32:59.041Z,95295.19
2022-08-28T03:35:28.328Z,95296.75
2022-08-28T03:37:56.062Z,95295.06
2022-08-28T03:40:23.778Z,95296.38
2022-08-28T03:42:53.348Z,95298.00
2022-08-28T03:45:22.082Z,95299.09
2022-08-28T03:47:50.858Z,95305.16
2022-08-28T03:50:19.869Z,95301.88
2022-08-28T03:52:49.186Z,95298.81
2022-08-28T03:55:18.798Z,95298.44
2022-08-28T03:57:46.801Z,95300.97
2022-08-28T04:00:16.408Z,95303.34
2022-08-28T04:02:46.100Z,95312.88
2022-08-28T04:05:14.357Z,95311.00
2022-08-28T04:07:42.062Z,95304.50
2022-08-28T04:10:12.162Z,95309.06
2022-08-28T04:12:39.935Z,95306.72
2022-08-28T04:15:09.016Z,95309.81
2022-08-28T04:17:39.583Z,95313.16
2022-08-28T04:20:11.201Z,95312.72
2022-08-28T04:22:39.558Z,95316.34
2022-08-28T04:25:08.896Z,95309.69
2022-08-28T04:27:37.930Z,95314.19
2022-08-28T04:30:07.032Z,95312.34
2022-08-28T04:32:38.346Z,95315.06
2022-08-28T04:35:09.042Z,95315.75
2022-08-28T04:37:37.268Z,95314.25
2022-08-28T04:40:05.715Z,95316.97
2022-08-28T04:42:33.540Z,95320.00
2022-08-28T04:45:02.768Z,95317.69
2022-08-28T04:47:30.976Z,95317.44
2022-08-28T04:49:58.702Z,95312.09
2022-08-28T04:52:26.446Z,95315.00
2022-08-28T04:54:54.051Z,95309.28
2022-08-28T04:57:21.788Z,95315.81
2022-08-28T04:59:49.454Z,95319.53
2022-08-28T05:02:18.538Z,95322.63
2022-08-28T05:04:46.880Z,95325.16
2022-08-28T05:07:14.606Z,95327.19
2022-08-28T05:09:43.412Z,95329.19
2022-08-28T05:12:17.034Z,95332.41
2022-08-28T05:14:45.614Z,95338.44
2022-08-28T05:17:15.095Z,95336.16
2022-08-28T05:19:44.164Z,95331.88
2022-08-28T05:22:12.047Z,95338.09
2022-08-28T05:24:40.388Z,95342.16
2022-08-28T05:27:08.686Z,95341.63
2022-08-28T05:29:36.531Z,95338.75
2022-08-28T05:32:05.549Z,95339.78
2022-08-28T05:34:33.211Z,95349.03
2022-08-28T05:37:02.258Z,95348.91
2022-08-28T05:39:30.056Z,95350.28
2022-08-28T05:41:57.692Z,95354.13
2022-08-28T05:44:25.360Z,95344.25
2022-08-28T05:46:53.077Z,95344.09
2022-08-28T05:49:20.938Z,95350.28
2022-08-28T05:51:49.970Z,95351.19
2022-08-28T05:54:19.296Z,95359.81
2022-08-28T05:56:47.297Z,95361.00
2022-08-28T05:59:16.101Z,95356.75
2022-08-28T06:01:46.491Z,95354.38
2022-08-28T06:04:17.719Z,95354.53
2022-08-28T06:06:46.766Z,95352.72
2022-08-28T06:09:16.437Z,95353.72
2022-08-28T06:11:46.445Z,95361.28
2022-08-28T06:14:16.605Z,95354.28
2022-08-28T06:16:48.321Z,95358.88
2022-08-28T06:19:17.455Z,95359.00
2022-08-28T06:21:46.860Z,95359.66
2022-08-28T06:24:15.135Z,95360.63
2022-08-28T06:26:42.834Z,95369.09
2022-08-28T06:29:13.563Z,95362.72
2022-08-28T06:31:41.300Z,95371.56
2022-08-28T06:34:09.939Z,95372.75
2022-08-28T06:36:40.294Z,95369.13
2022-08-28T06:39:09.530Z,95371.09
2022-08-28T06:41:40.987Z,95374.66
2022-08-28T06:44:08.856Z,95369.75
2022-08-28T06:46:38.059Z,95373.22
2022-08-28T06:49:08.022Z,95371.75
2022-08-28T06:51:36.631Z,95379.75
2022-08-28T06:54:05.083Z,95375.56
2022-08-28T06:56:33.649Z,95381.19
2022-08-28T06:59:01.800Z,95377.81
2022-08-28T07:01:32.974Z,95386.72
2022-08-28T07:04:04.028Z,95383.91
2022-08-28T07:06:34.120Z,95392.81
2022-08-28T07:09:01.934Z,95390.38
2022-08-28T07:11:31.388Z,95391.53
2022-08-28T07:14:00.681Z,95394.66
2022-08-28T07:16:30.608Z,95384.53
2022-08-28T07:18:59.469Z,95393.56
2022-08-28T07:21:28.527Z,95392.00
2022-08-28T07:23:56.388Z,95391.28
2022-08-28T07:26:26.133Z,95393.09
2022-08-28T07:29:09.324Z,95395.91
2022-08-28T07:31:40.814Z,95393.56
2022-08-28T07:34:09.498Z,95398.13
2022-08-28T07:36:39.338Z,95401.84
2022-08-28T07:39:08.386Z,95405.84
2022-08-28T07:41:39.328Z,95412.94
2022-08-28T07:44:28.327Z,95407.66
2022-08-28T07:46:57.110Z,95408.00
2022-08-28T07:49:25.883Z,95414.44
2022-08-28T07:51:54.985Z,95419.09
2022-08-28T07:54:22.929Z,95410.72
2022-08-28T07:56:51.103Z,95417.56
2022-08-28T07:59:19.292Z,95417.91
2022-08-28T08:01:50.653Z,95418.53
2022-08-28T08:04:20.916Z,95429.56
2022-08-28T08:06:48.947Z,95426.84
2022-08-28T08:09:19.457Z,95427.38
2022-08-28T08:11:48.151Z,95430.28
2022-08-28T08:14:17.706Z,95430.41
2022-08-28T08:16:48.403Z,95437.63
2022-08-28T08:19:18.888Z,95451.97
2022-08-28T08:21:53.136Z,95452.72
2022-08-28T08:24:26.566Z,95451.56
2022-08-28T08:26:59.675Z,95453.03
2022-08-28T08:29:28.692Z,95441.03
2022-08-28T08:31:58.036Z,95449.25
2022-08-28T08:34:26.484Z,95444.13
2022-08-28T08:36:54.298Z,95444.38
2022-08-28T08:39:22.030Z,95447.09
2022-08-28T08:41:54.710Z,95445.56
2022-08-28T08:44:28.529Z,95454.34
2022-08-28T08:47:14.069Z,95458.28
2022-08-28T08:49:48.910Z,95462.63
2022-08-28T08:52:35.951Z,95462.19
2022-08-28T08:55:15.110Z,95463.56
2022-08-28T08:57:49.173Z,95464.34
2022-08-28T09:00:18.895Z,95473.13
2022-08-28T09:02:54.276Z,95472.19
2022-08-28T09:05:28.583Z,95471.44
2022-08-28T09:07:57.952Z,95475.28
2022-08-28T09:10:35.189Z,95468.38
2022-08-28T09:13:13.163Z,95482.75
2022-08-28T09:15:48.678Z,95484.91
2022-08-28T09:18:22.255Z,95485.22
2022-08-28T09:20:51.101Z,95480.13
2022-08-28T09:23:18.830Z,95478.59
2022-08-28T09:25:53.875Z,95480.94
2022-08-28T09:28:26.542Z,95481.41
2022-08-28T09:31:06.214Z,95479.78
2022-08-28T09:33:42.123Z,95486.53
2022-08-28T09:36:37.625Z,95480.16
2022-08-28T09:39:12.959Z,95481.97
2022-08-28T09:42:04.518Z,95492.78
2022-08-28T09:44:34.001Z,95486.88
2022-08-28T09:47:02.365Z,95486.41
2022-08-28T09:49:31.436Z,95491.72
2022-08-28T09:52:01.627Z,95490.22
2022-08-28T09:54:33.853Z,95487.91
2022-08-28T09:57:03.422Z,95496.97
2022-08-28T09:59:32.987Z,95490.78
2022-08-28T10:02:22.319Z,95496.59
2022-08-28T10:05:01.259Z,95496.25
2022-08-28T10:07:38.442Z,95497.13
2022-08-28T10:10:21.336Z,95505.66
2022-08-28T10:13:00.323Z,95508.41
2022-08-28T10:15:34.594Z,95512.00
2022-08-28T10:18:19.981Z,95517.53
2022-08-28T10:20:58.614Z,95506.81
2022-08-28T10:23:33.958Z,95506.06
2022-08-28T10:26:17.505Z,95509.97
2022-08-28T10:28:56.102Z,95518.28
2022-08-28T10:31:36.212Z,95512.06
2022-08-28T10:34:27.452Z,95517.88
2022-08-28T10:37:03.670Z,95515.78
2022-08-28T10:39:44.955Z,95517.69
2022-08-28T10:42:13.503Z,95519.16
2022-08-28T10:44:50.417Z,95514.16
2022-08-28T10:47:22.818Z,95516.09
2022-08-28T10:50:01.738Z,95514.69
2022-08-28T10:52:34.289Z,95517.78
2022-08-28T10:55:09.253Z,95521.16
2022-08-28T10:57:42.624Z,95518.59
2022-08-28T11:00:13.303Z,95518.13
2022-08-28T11:02:48.949Z,95523.59
2022-08-28T11:05:21.795Z,95524.97
2022-08-28T11:07:55.297Z,95524.13
2022-08-28T11:10:40.062Z,95515.88
2022-08-28T11:13:10.197Z,95518.22
2022-08-28T11:15:48.095Z,95519.06
2022-08-28T11:18:41.463Z,95520.81
2022-08-28T11:21:16.840Z,95516.31
2022-08-28T11:23:50.007Z,95520.81
2022-08-28T11:26:30.748Z,95518.66
2022-08-28T11:29:00.334Z,95518.41
2022-08-28T11:31:32.276Z,95526.22
2022-08-28T11:34:02.693Z,95527.88
2022-08-28T11:37:02.842Z,95522.97
2022-08-28T11:39:30.837Z,95531.31
2022-08-28T11:42:32.214Z,95522.47
2022-08-28T11:45:00.612Z,95517.34
2022-08-28T11:47:46.554Z,95526.72
2022-08-28T11:50:21.635Z,95530.97
2022-08-28T11:53:17.926Z,95533.75
2022-08-28T11:56:08.732Z,95535.38
2022-08-28T11:58:43.426Z,95537.09
2022-08-28T12:01:14.203Z,95535.63
2022-08-28T12:03:44.623Z,95536.00
2022-08-28T12:06:14.369Z,95536.19
2022-08-28T12:09:09.966Z,95529.81
2022-08-28T12:12:11.278Z,95522.44
2022-08-28T12:15:11.202Z,95519.16
2022-08-28T12:17:51.966Z,95529.44
2022-08-28T12:20:40.595Z,95524.47
2022-08-28T12:23:51.166Z,95528.25
2022-08-28T12:26:27.630Z,95527.25
2022-08-28T12:28:58.014Z,95521.25
2022-08-28T12:32:14.448Z,95524.63
2022-08-28T12:34:46.930Z,95522.78
2022-08-28T12:37:39.603Z,95525.44
2022-08-28T12:40:22.034Z,95515.88
2022-08-28T12:42:55.359Z,95519.91
2022-08-28T12:45:27.699Z,95526.81
2022-08-28T12:48:00.018Z,95524.78
2022-08-28T12:50:32.174Z,95527.16
2022-08-28T12:53:02.518Z,95524.34
2022-08-28T12:55:31.216Z,95526.91
2022-08-28T12:58:00.713Z,95529.28
2022-08-28T13:00:34.840Z,95529.28
2022-08-28T13:03:03.887Z,95528.72
2022-08-28T13:05:34.401Z,95533.78
2022-08-28T13:08:08.554Z,95538.50
2022-08-28T13:10:39.359Z,95534.88
2022-08-28T13:13:12.335Z,95531.97
2022-08-28T13:15:57.919Z,95530.78
2022-08-28T13:18:42.846Z,95526.63
2022-08-28T13:21:15.861Z,95525.97
2022-08-28T13:23:43.588Z,95524.03
2022-08-28T13:26:12.598Z,95525.22
2022-08-28T13:28:43.782Z,95524.94
2022-08-28T13:31:23.959Z,95523.41
2022-08-28T13:34:07.207Z,95533.63
2022-08-28T13:36:45.464Z,95524.94
2022-08-28T13:39:15.002Z,95525.38
2022-08-28T13:41:45.108Z,95522.66
2022-08-28T13:44:30.539Z,95520.00
2022-08-28T13:46:59.669Z,95520.63
2022-08-28T13:49:29.848Z,95519.94
2022-08-28T13:51:59.213Z,95518.78
2022-08-28T13:54:27.740Z,95518.59
2022-08-28T13:56:58.783Z,95523.59
2022-08-28T13:59:28.777Z,95518.97
2022-08-28T14:02:16.703Z,95518.19
2022-08-28T14:04:44.814Z,95528.00
2022-08-28T14:07:15.193Z,95529.16
2022-08-28T14:09:43.144Z,95521.06
2022-08-28T14:12:12.043Z,95529.66
2022-08-28T14:14:41.373Z,95521.78
2022-08-28T14:17:09.993Z,95527.56
2022-08-28T14:19:38.171Z,95523.06
2022-08-28T14:22:06.096Z,95518.59
2022-08-28T14:24:33.835Z,95529.22
2022-08-28T14:27:02.564Z,95534.56
2022-08-28T14:29:31.472Z,95525.28
2022-08-28T14:32:01.827Z,95527.91
2022-08-28T14:34:29.617Z,95526.09
2022-08-28T14:36:57.477Z,95524.81
2022-08-28T14:39:27.294Z,95521.13
2022-08-28T14:41:55.881Z,95522.34
2022-08-28T14:44:25.111Z,95519.53
2022-08-28T14:46:56.077Z,95527.00
2022-08-28T14:49:28.257Z,95520.31
2022-08-28T14:51:57.049Z,95523.63
2022-08-28T14:54:26.308Z,95525.22
2022-08-28T14:56:55.132Z,95521.13
2022-08-28T14:59:25.684Z,95517.50
2022-08-28T15:01:55.294Z,95521.59
2022-08-28T15:04:26.031Z,95519.25
2022-08-28T15:06:59.159Z,95517.97
2022-08-28T15:09:27.409Z,95518.91
2022-08-28T15:11:55.404Z,95533.34
2022-08-28T15:14:23.143Z,95529.22
2022-08-28T15:16:50.937Z,95528.50
2022-08-28T15:19:19.054Z,95527.06
2022-08-28T15:21:49.492Z,95523.97
2022-08-28T15:24:24.102Z,95518.53
2022-08-28T15:26:52.117Z,95526.84
2022-08-28T15:29:19.832Z,95515.09
2022-08-28T15:31:49.995Z,95517.19
2022-08-28T15:34:22.037Z,95518.03
2022-08-28T15:36:54.702Z,95526.50
2022-08-28T15:39:42.236Z,95518.03
2022-08-28T15:42:11.392Z,95515.09
2022-08-28T15:44:39.604Z,95514.88
2022-08-28T15:47:07.815Z,95516.31
2022-08-28T15:49:44.662Z,95510.91
2022-08-28T15:52:16.781Z,95510.38
2022-08-28T15:54:45.832Z,95507.88
2022-08-28T15:57:13.543Z,95511.34
2022-08-28T15:59:49.129Z,95497.25
2022-08-28T16:02:18.971Z,95499.81
2022-08-28T16:04:46.842Z,95499.13
2022-08-28T16:07:14.606Z,95493.00
2022-08-28T16:09:42.380Z,95496.66
2022-08-28T16:12:11.532Z,95492.34
2022-08-28T16:14:39.221Z,95490.94
2022-08-28T16:17:10.690Z,95491.78
2022-08-28T16:19:39.052Z,95492.75
2022-08-28T16:22:06.908Z,95495.91
2022-08-28T16:24:34.810Z,95497.44
2022-08-28T16:27:02.727Z,95497.69
2022-08-28T16:29:32.114Z,95493.81
2022-08-28T16:31:59.832Z,95492.34
2022-08-28T16:35:56.888Z,95492.66
2022-08-28T16:37:19.569Z,95498.56
2022-08-28T16:39:54.355Z,95496.31
2022-08-28T16:42:22.118Z,95495.13
2022-08-28T16:44:51.240Z,95493.91
2022-08-28T16:47:18.954Z,95491.44
2022-08-28T16:49:46.626Z,95489.38
2022-08-28T16:52:14.307Z,95498.16
2022-08-28T16:54:47.459Z,95497.13
2022-08-28T16:57:16.684Z,95501.75
2022-08-28T16:59:44.426Z,95504.78
2022-08-28T17:02:13.603Z,95508.84
2022-08-28T17:04:41.775Z,95510.06
2022-08-28T17:07:09.550Z,95511.47
2022-08-28T17:09:37.239Z,95516.03
2022-08-28T17:12:05.105Z,95514.19
2022-08-28T17:14:33.732Z,95527.09
2022-08-28T17:17:01.654Z,95522.22
2022-08-28T17:19:30.983Z,95521.75
2022-08-28T17:22:16.119Z,95522.94
2022-08-28T17:24:43.880Z,95530.13
2022-08-28T17:27:14.417Z,95533.78
2022-08-28T17:29:49.171Z,95527.66
2022-08-28T17:32:16.874Z,95535.19
2022-08-28T17:34:45.973Z,95536.81
2022-08-28T17:37:13.727Z,95528.44
2022-08-28T17:39:41.422Z,95540.84
2022-08-28T17:42:11.183Z,95536.75
2022-08-28T17:44:38.920Z,95543.06
2022-08-28T17:47:06.945Z,95538.41
2022-08-28T17:49:34.674Z,95542.88
2022-08-28T17:52:04.203Z,95549.16
2022-08-28T17:54:31.999Z,95542.25
2022-08-28T17:57:00.078Z,95545.88
2022-08-28T17:59:27.853Z,95553.38
2022-08-28T18:01:55.820Z,95552.75
2022-08-28T18:04:24.632Z,95552.75
2022-08-28T18:06:54.079Z,95554.94
2022-08-28T18:09:24.017Z,95552.75
2022-08-28T18:11:52.184Z,95560.06
2022-08-28T18:14:19.994Z,95551.03
2022-08-28T18:16:48.273Z,95552.31
2022-08-28T18:19:16.780Z,95554.78
2022-08-28T18:24:25.383Z,95555.78
2022-08-28T18:26:53.776Z,95565.38
2022-08-28T18:29:20.253Z,95569.41
2022-08-28T18:31:46.721Z,95572.03
2022-08-28T18:34:13.601Z,95578.31
2022-08-28T18:36:40.832Z,95577.34
2022-08-28T18:39:07.624Z,95578.25
2022-08-28T18:41:43.871Z,95582.63
2022-08-28T18:51:53.054Z,95596.97
2022-08-28T18:54:20.285Z,95588.84
2022-08-28T18:56:49.106Z,95598.78
2022-08-28T18:59:16.936Z,95600.31
2022-08-28T19:01:43.367Z,95608.25
2022-08-28T19:04:10.195Z,95613.06
2022-08-28T19:06:36.641Z,95610.25
2022-08-28T19:11:57.394Z,95610.81
2022-08-28T19:14:23.706Z,95611.44
2022-08-28T19:16:50.018Z,95609.16
2022-08-28T19:19:16.358Z,95613.91
2022-08-28T19:21:43.294Z,95607.94
2022-08-28T19:24:09.631Z,95611.94
2022-08-28T19:26:36.360Z,95614.31
2022-08-28T19:29:04.429Z,95620.16
2022-08-28T19:36:36.807Z,95618.25
2022-08-28T19:39:04.802Z,95615.78
2022-08-28T19:41:32.318Z,95613.34
2022-08-28T19:43:59.156Z,95614.72
2022-08-28T19:46:25.862Z,95619.91
2022-08-28T19:48:53.194Z,95619.63
2022-08-28T19:51:23.463Z,95628.41
2022-08-28T20:00:28.583Z,95628.47
2022-08-28T20:02:57.056Z,95637.03
2022-08-28T20:05:24.442Z,95639.69
2022-08-28T20:07:51.357Z,95632.81
2022-08-28T20:10:19.049Z,95640.00
2022-08-28T20:12:48.538Z,95646.97
2022-08-28T20:15:16.699Z,95641.97
2022-08-28T20:21:09.339Z,95644.16
2022-08-28T20:23:35.664Z,95639.50
2022-08-28T20:26:02.407Z,95643.84
2022-08-28T20:28:30.921Z,95642.94
2022-08-28T20:30:57.430Z,95638.19
2022-08-28T20:33:23.812Z,95639.72
2022-08-28T20:35:59.797Z,95646.53
2022-08-28T20:43:29.592Z,95631.78
2022-08-28T20:45:55.933Z,95632.94
2022-08-28T20:48:22.317Z,95632.38
2022-08-28T20:50:50.826Z,95630.66
2022-08-28T20:53:36.813Z,95627.75
2022-08-28T20:56:07.329Z,95628.66
2022-08-28T20:58:34.864Z,95635.09
2022-08-28T21:08:49.170Z,95634.41
2022-08-28T21:11:15.983Z,95645.44
2022-08-28T21:13:42.436Z,95639.22
2022-08-28T21:16:09.064Z,95646.00
2022-08-28T21:18:35.571Z,95644.47
2022-08-28T21:21:03.747Z,95647.09
2022-08-28T21:23:30.343Z,95653.63
2022-08-28T21:25:57.889Z,95647.84
2022-08-28T21:33:27.367Z,95644.69
2022-08-28T21:35:53.650Z,95655.44
2022-08-28T21:38:20.156Z,95646.94
2022-08-28T21:40:46.583Z,95654.22
2022-08-28T21:43:13.358Z,95657.81
2022-08-28T21:45:39.715Z,95656.75
2022-08-28T21:48:06.091Z,95645.28
2022-08-28T21:50:35.104Z,95645.66
2022-08-28T21:58:04.700Z,95648.25
2022-08-28T22:00:31.054Z,95652.28
2022-08-28T22:02:57.398Z,95650.97
2022-08-28T22:05:23.952Z,95654.41
2022-08-28T22:07:50.273Z,95664.19
2022-08-28T22:10:17.065Z,95664.47
2022-08-28T22:12:46.022Z,95660.78
2022-08-28T22:15:15.095Z,95656.41
2022-08-28T22:17:42.849Z,95654.50
2022-08-28T22:20:11.195Z,95658.94
2022-08-28T22:22:56.572Z,95659.28
2022-08-28T22:25:24.480Z,95653.53
2022-08-28T22:27:52.195Z,95654.88
2022-08-28T22:30:21.594Z,95658.69
2022-08-28T22:32:49.426Z,95650.78
2022-08-28T22:35:17.230Z,95658.00
2022-08-28T22:37:45.035Z,95659.75
2022-08-28T22:40:13.880Z,95653.44
2022-08-28T22:42:42.357Z,95658.34
2022-08-28T22:45:11.094Z,95664.72
2022-08-28T22:47:40.525Z,95660.44
2022-08-28T22:50:09.258Z,95662.44
2022-08-28T22:52:37.331Z,95654.16
2022-08-28T22:55:06.673Z,95662.31
2022-08-28T22:57:34.462Z,95659.66
2022-08-28T23:00:04.002Z,95662.31
2022-08-28T23:02:34.108Z,95658.16
2022-08-28T23:05:03.340Z,95661.97
2022-08-28T23:07:31.368Z,95657.28
2022-08-28T23:09:59.008Z,95654.91
2022-08-28T23:12:26.912Z,95654.16
2022-08-28T23:14:54.637Z,95657.84
2022-08-28T23:17:22.490Z,95666.22
2022-08-28T23:24:53.317Z,95662.50
2022-08-28T23:27:35.775Z,95663.84
2022-08-28T23:30:05.124Z,95663.72
2022-08-28T23:32:31.465Z,95665.09
2022-08-28T23:35:01.882Z,95664.91
2022-08-28T23:37:29.645Z,95660.25
2022-08-28T23:40:00.857Z,95652.88
2022-08-28T23:42:28.681Z,95653.41
2022-08-28T23:44:56.946Z,95651.47
2022-08-28T23:47:24.664Z,95658.47
2022-08-28T23:49:52.369Z,95653.72
2022-08-28T23:52:20.157Z,95651.69
2022-08-28T23:54:49.869Z,95638.78
2022-08-28T23:57:18.980Z,95647.91
2022-08-28T23:59:47.308Z,95645.38
